SKCL/CLO METAR and TAF weather

Enter ICAO airport designator
Station Type Date Time Source
SKCL METAR 2022/01/29 02:00 UTC NOAA

SKCL 290200Z VRB02KT 9999 FEW030 SCT120 23/18 Q1015 NOSIG RMK A2999


Station Type Date Time Source
SKCL Decoded METAR 2022/01/29 02:00 UTC NOAA

Cali / Alfonso Bonillaaragon, Colombia (SKCL) 03-33N 076-23W 969M
Jan 28, 2022 - 09:00 PM EST / 2022.01.29 0200 UTC
Wind: Variable at 2 MPH (2 KT):0
Visibility: greater than 7 mile(s):0
Sky conditions: partly cloudy
Temperature: 73 F (23 C)
Dew Point: 64 F (18 C)
Relative Humidity: 73%
Pressure (altimeter): 29.97 in. Hg (1015 hPa)
ob: SKCL 290200Z VRB02KT 9999 FEW030 SCT120 23/18 Q1015 NOSIG RMK A2999
cycle: 2

Station Type Date Time Source
SKCL TAF 2022/01/28 18:34 UTC NOAA

TAF SKCL 281630Z 2818/2918 VRB04KT 9999 SCT020
TEMPO 2820/2824 33012KT SCT020TCU TX31/2820Z TN19/2910Z

Example: see airport list